sensor_id;sensor_type;location;lat;lon;timestamp;temperature;humidity
23748;DHT22;12054;53.662;10.126;2022-08-03T00:00:39;22.90;93.20
23748;DHT22;12054;53.662;10.126;2022-08-03T00:03:04;22.90;93.30
23748;DHT22;12054;53.662;10.126;2022-08-03T00:05:30;22.80;93.30
23748;DHT22;12054;53.662;10.126;2022-08-03T00:07:58;22.80;93.30
23748;DHT22;12054;53.662;10.126;2022-08-03T00:10:23;22.80;93.40
23748;DHT22;12054;53.662;10.126;2022-08-03T00:12:49;22.80;93.40
23748;DHT22;12054;53.662;10.126;2022-08-03T00:15:15;22.70;93.40
23748;DHT22;12054;53.662;10.126;2022-08-03T00:17:41;22.70;93.40
23748;DHT22;12054;53.662;10.126;2022-08-03T00:20:06;22.70;93.40
23748;DHT22;12054;53.662;10.126;2022-08-03T00:22:34;22.60;93.40
23748;DHT22;12054;53.662;10.126;2022-08-03T00:24:59;22.70;93.50
23748;DHT22;12054;53.662;10.126;2022-08-03T00:27:25;22.60;93.60
23748;DHT22;12054;53.662;10.126;2022-08-03T00:29:50;22.60;93.70
23748;DHT22;12054;53.662;10.126;2022-08-03T00:32:16;22.60;93.80
23748;DHT22;12054;53.662;10.126;2022-08-03T00:34:41;22.60;93.90
23748;DHT22;12054;53.662;10.126;2022-08-03T00:37:07;22.50;94.00
23748;DHT22;12054;53.662;10.126;2022-08-03T00:39:32;22.50;94.10
23748;DHT22;12054;53.662;10.126;2022-08-03T00:42:01;22.40;94.20
23748;DHT22;12054;53.662;10.126;2022-08-03T00:44:27;22.50;94.30
23748;DHT22;12054;53.662;10.126;2022-08-03T00:46:52;22.40;94.30
23748;DHT22;12054;53.662;10.126;2022-08-03T00:49:18;22.40;94.30
23748;DHT22;12054;53.662;10.126;2022-08-03T00:51:43;22.30;94.40
23748;DHT22;12054;53.662;10.126;2022-08-03T00:54:09;22.30;94.40
23748;DHT22;12054;53.662;10.126;2022-08-03T00:56:36;22.30;94.40
23748;DHT22;12054;53.662;10.126;2022-08-03T00:59:02;22.20;94.40
23748;DHT22;12054;53.662;10.126;2022-08-03T01:01:28;22.30;94.40
23748;DHT22;12054;53.662;10.126;2022-08-03T01:03:53;22.20;94.40
23748;DHT22;12054;53.662;10.126;2022-08-03T01:06:27;22.20;94.40
23748;DHT22;12054;53.662;10.126;2022-08-03T01:09:05;22.20;94.40
23748;DHT22;12054;53.662;10.126;2022-08-03T01:11:37;22.10;94.40
23748;DHT22;12054;53.662;10.126;2022-08-03T01:14:49;22.10;94.40
23748;DHT22;12054;53.662;10.126;2022-08-03T01:17:24;22.10;94.40
23748;DHT22;12054;53.662;10.126;2022-08-03T01:20:03;22.00;94.40
23748;DHT22;12054;53.662;10.126;2022-08-03T01:25:35;22.00;94.40
23748;DHT22;12054;53.662;10.126;2022-08-03T01:28:32;21.90;94.50
23748;DHT22;12054;53.662;10.126;2022-08-03T01:31:05;21.90;94.50
23748;DHT22;12054;53.662;10.126;2022-08-03T01:33:38;21.90;94.50
23748;DHT22;12054;53.662;10.126;2022-08-03T01:36:08;21.90;94.60
23748;DHT22;12054;53.662;10.126;2022-08-03T01:38:40;21.80;94.70
23748;DHT22;12054;53.662;10.126;2022-08-03T01:41:11;21.80;94.70
23748;DHT22;12054;53.662;10.126;2022-08-03T01:43:39;21.80;94.70
23748;DHT22;12054;53.662;10.126;2022-08-03T01:46:07;21.80;94.80
23748;DHT22;12054;53.662;10.126;2022-08-03T01:48:35;21.70;94.80
23748;DHT22;12054;53.662;10.126;2022-08-03T01:51:02;21.70;94.80
23748;DHT22;12054;53.662;10.126;2022-08-03T01:53:30;21.70;94.90
23748;DHT22;12054;53.662;10.126;2022-08-03T01:55:56;21.60;94.90
23748;DHT22;12054;53.662;10.126;2022-08-03T01:58:23;21.60;94.90
23748;DHT22;12054;53.662;10.126;2022-08-03T02:00:52;21.60;95.00
23748;DHT22;12054;53.662;10.126;2022-08-03T02:03:21;21.60;95.00
23748;DHT22;12054;53.662;10.126;2022-08-03T02:05:48;21.60;95.10
23748;DHT22;12054;53.662;10.126;2022-08-03T02:08:17;21.60;95.10
23748;DHT22;12054;53.662;10.126;2022-08-03T02:10:43;21.50;95.10
23748;DHT22;12054;53.662;10.126;2022-08-03T02:13:11;21.50;95.20
23748;DHT22;12054;53.662;10.126;2022-08-03T02:15:37;21.50;95.20
23748;DHT22;12054;53.662;10.126;2022-08-03T02:18:05;21.50;95.20
23748;DHT22;12054;53.662;10.126;2022-08-03T02:20:32;21.50;95.20
23748;DHT22;12054;53.662;10.126;2022-08-03T02:23:00;21.50;95.30
23748;DHT22;12054;53.662;10.126;2022-08-03T02:25:26;21.40;95.30
23748;DHT22;12054;53.662;10.126;2022-08-03T02:27:59;21.40;95.30
23748;DHT22;12054;53.662;10.126;2022-08-03T02:30:31;21.40;95.40
23748;DHT22;12054;53.662;10.126;2022-08-03T02:32:58;21.30;95.40
23748;DHT22;12054;53.662;10.126;2022-08-03T02:35:27;21.30;95.40
23748;DHT22;12054;53.662;10.126;2022-08-03T02:37:58;21.20;95.50
23748;DHT22;12054;53.662;10.126;2022-08-03T02:40:27;21.30;95.50
23748;DHT22;12054;53.662;10.126;2022-08-03T02:42:56;21.20;95.50
23748;DHT22;12054;53.662;10.126;2022-08-03T02:45:24;21.20;95.90
23748;DHT22;12054;53.662;10.126;2022-08-03T02:47:59;21.20;95.60
23748;DHT22;12054;53.662;10.126;2022-08-03T02:50:28;21.20;95.60
23748;DHT22;12054;53.662;10.126;2022-08-03T02:52:56;21.10;95.60
23748;DHT22;12054;53.662;10.126;2022-08-03T02:55:24;21.20;95.70
23748;DHT22;12054;53.662;10.126;2022-08-03T02:57:50;21.10;95.70
23748;DHT22;12054;53.662;10.126;2022-08-03T03:00:17;21.10;95.80
23748;DHT22;12054;53.662;10.126;2022-08-03T03:02:43;21.10;95.80
23748;DHT22;12054;53.662;10.126;2022-08-03T03:05:09;21.10;95.90
23748;DHT22;12054;53.662;10.126;2022-08-03T03:07:36;21.10;95.90
23748;DHT22;12054;53.662;10.126;2022-08-03T03:10:03;21.10;95.90
23748;DHT22;12054;53.662;10.126;2022-08-03T03:12:30;21.00;95.90
23748;DHT22;12054;53.662;10.126;2022-08-03T03:14:57;21.00;96.00
23748;DHT22;12054;53.662;10.126;2022-08-03T03:17:23;21.00;96.00
23748;DHT22;12054;53.662;10.126;2022-08-03T03:19:50;21.00;96.10
23748;DHT22;12054;53.662;10.126;2022-08-03T03:22:16;20.90;96.10
23748;DHT22;12054;53.662;10.126;2022-08-03T03:24:43;20.90;96.20
23748;DHT22;12054;53.662;10.126;2022-08-03T03:27:10;20.90;96.20
23748;DHT22;12054;53.662;10.126;2022-08-03T03:29:38;20.90;96.30
23748;DHT22;12054;53.662;10.126;2022-08-03T03:32:04;20.80;96.30
23748;DHT22;12054;53.662;10.126;2022-08-03T03:34:30;20.80;96.30
23748;DHT22;12054;53.662;10.126;2022-08-03T03:36:56;20.80;96.40
23748;DHT22;12054;53.662;10.126;2022-08-03T03:39:22;20.80;96.40
23748;DHT22;12054;53.662;10.126;2022-08-03T03:41:48;20.80;96.50
23748;DHT22;12054;53.662;10.126;2022-08-03T03:44:13;20.80;96.60
23748;DHT22;12054;53.662;10.126;2022-08-03T03:46:39;20.70;96.50
23748;DHT22;12054;53.662;10.126;2022-08-03T03:49:05;20.70;96.60
23748;DHT22;12054;53.662;10.126;2022-08-03T03:51:31;20.70;96.60
23748;DHT22;12054;53.662;10.126;2022-08-03T03:53:58;20.70;96.60
23748;DHT22;12054;53.662;10.126;2022-08-03T03:56:24;20.70;96.70
23748;DHT22;12054;53.662;10.126;2022-08-03T03:58:50;20.60;96.70
23748;DHT22;12054;53.662;10.126;2022-08-03T04:01:16;20.70;96.80
23748;DHT22;12054;53.662;10.126;2022-08-03T04:03:42;20.60;96.80
23748;DHT22;12054;53.662;10.126;2022-08-03T04:06:08;20.60;96.90
23748;DHT22;12054;53.662;10.126;2022-08-03T04:08:52;20.60;96.90
23748;DHT22;12054;53.662;10.126;2022-08-03T04:11:51;20.60;96.90
23748;DHT22;12054;53.662;10.126;2022-08-03T04:14:24;20.60;96.90
23748;DHT22;12054;53.662;10.126;2022-08-03T04:16:55;20.60;97.00
23748;DHT22;12054;53.662;10.126;2022-08-03T04:19:34;20.60;97.00
23748;DHT22;12054;53.662;10.126;2022-08-03T04:22:05;20.60;97.10
23748;DHT22;12054;53.662;10.126;2022-08-03T04:24:40;20.50;97.10
23748;DHT22;12054;53.662;10.126;2022-08-03T04:27:09;20.50;97.20
23748;DHT22;12054;53.662;10.126;2022-08-03T04:29:38;20.50;97.20
23748;DHT22;12054;53.662;10.126;2022-08-03T04:32:05;20.50;97.30
23748;DHT22;12054;53.662;10.126;2022-08-03T04:34:32;20.50;97.30
23748;DHT22;12054;53.662;10.126;2022-08-03T04:37:00;20.50;97.40
23748;DHT22;12054;53.662;10.126;2022-08-03T04:39:30;20.40;97.50
23748;DHT22;12054;53.662;10.126;2022-08-03T04:42:02;20.40;97.50
23748;DHT22;12054;53.662;10.126;2022-08-03T04:44:30;20.40;97.60
23748;DHT22;12054;53.662;10.126;2022-08-03T04:46:57;20.40;97.70
23748;DHT22;12054;53.662;10.126;2022-08-03T04:49:24;20.40;97.70
23748;DHT22;12054;53.662;10.126;2022-08-03T04:51:50;20.40;97.80
23748;DHT22;12054;53.662;10.126;2022-08-03T04:54:16;20.40;97.90
23748;DHT22;12054;53.662;10.126;2022-08-03T04:56:42;20.40;97.90
23748;DHT22;12054;53.662;10.126;2022-08-03T04:59:08;20.40;98.00
23748;DHT22;12054;53.662;10.126;2022-08-03T05:01:34;20.40;98.00
23748;DHT22;12054;53.662;10.126;2022-08-03T05:04:00;20.40;98.10
23748;DHT22;12054;53.662;10.126;2022-08-03T05:06:25;20.40;98.10
23748;DHT22;12054;53.662;10.126;2022-08-03T05:08:51;20.40;98.20
23748;DHT22;12054;53.662;10.126;2022-08-03T05:11:17;20.40;98.30
23748;DHT22;12054;53.662;10.126;2022-08-03T05:13:43;20.40;98.30
23748;DHT22;12054;53.662;10.126;2022-08-03T05:16:09;20.40;98.40
23748;DHT22;12054;53.662;10.126;2022-08-03T05:18:34;20.40;98.50
23748;DHT22;12054;53.662;10.126;2022-08-03T05:21:00;20.40;98.50
23748;DHT22;12054;53.662;10.126;2022-08-03T05:23:26;20.40;98.60
23748;DHT22;12054;53.662;10.126;2022-08-03T05:25:51;20.40;98.70
23748;DHT22;12054;53.662;10.126;2022-08-03T05:28:17;20.40;98.80
23748;DHT22;12054;53.662;10.126;2022-08-03T05:30:42;20.40;98.90
23748;DHT22;12054;53.662;10.126;2022-08-03T05:33:08;20.40;98.90
23748;DHT22;12054;53.662;10.126;2022-08-03T05:35:33;20.40;99.00
23748;DHT22;12054;53.662;10.126;2022-08-03T05:38:01;20.40;99.10
23748;DHT22;12054;53.662;10.126;2022-08-03T05:40:27;20.40;99.20
23748;DHT22;12054;53.662;10.126;2022-08-03T05:42:53;20.40;99.30
23748;DHT22;12054;53.662;10.126;2022-08-03T05:45:18;20.50;99.40
23748;DHT22;12054;53.662;10.126;2022-08-03T05:47:44;20.50;99.50
23748;DHT22;12054;53.662;10.126;2022-08-03T05:50:11;20.50;99.50
23748;DHT22;12054;53.662;10.126;2022-08-03T05:52:38;20.50;99.60
23748;DHT22;12054;53.662;10.126;2022-08-03T05:55:07;20.50;99.60
23748;DHT22;12054;53.662;10.126;2022-08-03T05:57:33;20.50;99.60
23748;DHT22;12054;53.662;10.126;2022-08-03T06:00:00;20.50;99.60
23748;DHT22;12054;53.662;10.126;2022-08-03T06:02:26;20.50;99.70
23748;DHT22;12054;53.662;10.126;2022-08-03T06:04:51;20.50;99.70
23748;DHT22;12054;53.662;10.126;2022-08-03T06:07:17;20.60;99.80
23748;DHT22;12054;53.662;10.126;2022-08-03T06:09:42;20.60;99.90
23748;DHT22;12054;53.662;10.126;2022-08-03T06:12:08;20.70;99.90
23748;DHT22;12054;53.662;10.126;2022-08-03T06:14:34;20.70;99.90
23748;DHT22;12054;53.662;10.126;2022-08-03T06:16:59;20.80;99.90
23748;DHT22;12054;53.662;10.126;2022-08-03T06:19:25;20.80;99.90
23748;DHT22;12054;53.662;10.126;2022-08-03T06:21:51;20.80;99.90
23748;DHT22;12054;53.662;10.126;2022-08-03T06:24:17;20.90;99.90
23748;DHT22;12054;53.662;10.126;2022-08-03T06:26:42;21.00;99.80
23748;DHT22;12054;53.662;10.126;2022-08-03T06:29:08;21.00;99.80
23748;DHT22;12054;53.662;10.126;2022-08-03T06:31:33;21.10;99.80
23748;DHT22;12054;53.662;10.126;2022-08-03T06:34:03;21.10;99.70
23748;DHT22;12054;53.662;10.126;2022-08-03T06:36:29;21.10;99.70
23748;DHT22;12054;53.662;10.126;2022-08-03T06:38:56;21.20;99.70
23748;DHT22;12054;53.662;10.126;2022-08-03T06:41:22;21.30;99.70
23748;DHT22;12054;53.662;10.126;2022-08-03T06:43:48;21.30;99.70
23748;DHT22;12054;53.662;10.126;2022-08-03T06:46:13;21.40;99.60
23748;DHT22;12054;53.662;10.126;2022-08-03T06:48:39;21.40;99.50
23748;DHT22;12054;53.662;10.126;2022-08-03T06:51:04;21.60;99.60
23748;DHT22;12054;53.662;10.126;2022-08-03T06:53:30;21.60;99.40
23748;DHT22;12054;53.662;10.126;2022-08-03T06:55:55;21.70;99.20
23748;DHT22;12054;53.662;10.126;2022-08-03T06:58:21;21.70;99.10
23748;DHT22;12054;53.662;10.126;2022-08-03T07:00:48;21.80;99.00
23748;DHT22;12054;53.662;10.126;2022-08-03T07:03:14;21.80;99.00
23748;DHT22;12054;53.662;10.126;2022-08-03T07:05:41;21.90;98.90
23748;DHT22;12054;53.662;10.126;2022-08-03T07:08:06;22.00;98.90
23748;DHT22;12054;53.662;10.126;2022-08-03T07:10:32;22.10;98.90
23748;DHT22;12054;53.662;10.126;2022-08-03T07:12:57;22.30;98.90
23748;DHT22;12054;53.662;10.126;2022-08-03T07:15:23;22.40;98.70
23748;DHT22;12054;53.662;10.126;2022-08-03T07:17:49;22.60;98.40
23748;DHT22;12054;53.662;10.126;2022-08-03T07:20:14;22.80;98.20
23748;DHT22;12054;53.662;10.126;2022-08-03T07:22:42;23.10;97.90
23748;DHT22;12054;53.662;10.126;2022-08-03T07:25:09;23.30;97.50
23748;DHT22;12054;53.662;10.126;2022-08-03T07:27:35;23.60;97.00
23748;DHT22;12054;53.662;10.126;2022-08-03T07:30:04;23.90;96.80
23748;DHT22;12054;53.662;10.126;2022-08-03T07:32:29;24.10;96.40
23748;DHT22;12054;53.662;10.126;2022-08-03T07:34:55;24.20;96.10
23748;DHT22;12054;53.662;10.126;2022-08-03T07:37:21;24.50;95.80
23748;DHT22;12054;53.662;10.126;2022-08-03T07:39:47;24.70;95.50
23748;DHT22;12054;53.662;10.126;2022-08-03T07:42:12;24.80;95.30
23748;DHT22;12054;53.662;10.126;2022-08-03T07:44:38;25.00;94.80
23748;DHT22;12054;53.662;10.126;2022-08-03T07:47:05;25.30;94.70
23748;DHT22;12054;53.662;10.126;2022-08-03T07:49:30;25.50;94.10
23748;DHT22;12054;53.662;10.126;2022-08-03T07:51:56;25.50;93.70
23748;DHT22;12054;53.662;10.126;2022-08-03T07:54:40;25.70;93.20
23748;DHT22;12054;53.662;10.126;2022-08-03T07:57:06;25.80;93.10
23748;DHT22;12054;53.662;10.126;2022-08-03T07:59:31;25.80;92.60
23748;DHT22;12054;53.662;10.126;2022-08-03T08:01:59;25.90;92.50
23748;DHT22;12054;53.662;10.126;2022-08-03T08:04:24;25.90;92.50
23748;DHT22;12054;53.662;10.126;2022-08-03T08:06:50;26.00;92.40
23748;DHT22;12054;53.662;10.126;2022-08-03T08:09:15;26.00;92.20
23748;DHT22;12054;53.662;10.126;2022-08-03T08:11:41;26.10;92.20
23748;DHT22;12054;53.662;10.126;2022-08-03T08:14:06;26.20;91.90
23748;DHT22;12054;53.662;10.126;2022-08-03T08:16:33;26.30;91.80
23748;DHT22;12054;53.662;10.126;2022-08-03T08:18:58;26.50;91.80
23748;DHT22;12054;53.662;10.126;2022-08-03T08:21:24;26.60;91.50
23748;DHT22;12054;53.662;10.126;2022-08-03T08:23:50;26.70;91.00
23748;DHT22;12054;53.662;10.126;2022-08-03T08:26:15;26.70;90.60
23748;DHT22;12054;53.662;10.126;2022-08-03T08:28:41;26.80;90.70
23748;DHT22;12054;53.662;10.126;2022-08-03T08:31:06;26.80;90.60
23748;DHT22;12054;53.662;10.126;2022-08-03T08:33:32;26.90;90.40
23748;DHT22;12054;53.662;10.126;2022-08-03T08:35:59;27.10;90.30
23748;DHT22;12054;53.662;10.126;2022-08-03T08:38:25;27.20;90.20
23748;DHT22;12054;53.662;10.126;2022-08-03T08:40:50;27.30;90.00
23748;DHT22;12054;53.662;10.126;2022-08-03T08:43:16;27.40;89.50
23748;DHT22;12054;53.662;10.126;2022-08-03T08:45:42;27.50;89.10
23748;DHT22;12054;53.662;10.126;2022-08-03T08:48:09;27.70;88.50
23748;DHT22;12054;53.662;10.126;2022-08-03T08:50:37;27.70;88.20
23748;DHT22;12054;53.662;10.126;2022-08-03T08:53:06;27.90;87.70
23748;DHT22;12054;53.662;10.126;2022-08-03T08:55:34;28.00;87.30
23748;DHT22;12054;53.662;10.126;2022-08-03T08:58:05;28.30;87.10
23748;DHT22;12054;53.662;10.126;2022-08-03T09:00:30;28.40;85.90
23748;DHT22;12054;53.662;10.126;2022-08-03T09:02:56;28.60;85.40
23748;DHT22;12054;53.662;10.126;2022-08-03T09:05:22;28.70;85.10
23748;DHT22;12054;53.662;10.126;2022-08-03T09:07:48;28.80;84.80
23748;DHT22;12054;53.662;10.126;2022-08-03T09:10:16;28.90;84.40
23748;DHT22;12054;53.662;10.126;2022-08-03T09:12:49;29.10;84.10
23748;DHT22;12054;53.662;10.126;2022-08-03T09:15:25;29.20;83.90
23748;DHT22;12054;53.662;10.126;2022-08-03T09:17:53;29.20;83.00
23748;DHT22;12054;53.662;10.126;2022-08-03T09:20:20;29.30;82.60
23748;DHT22;12054;53.662;10.126;2022-08-03T09:22:55;29.40;82.30
23748;DHT22;12054;53.662;10.126;2022-08-03T09:25:32;29.40;82.30
23748;DHT22;12054;53.662;10.126;2022-08-03T09:28:24;29.50;81.60
23748;DHT22;12054;53.662;10.126;2022-08-03T09:30:58;29.60;81.10
23748;DHT22;12054;53.662;10.126;2022-08-03T09:33:24;29.60;81.20
23748;DHT22;12054;53.662;10.126;2022-08-03T09:35:50;29.80;81.20
23748;DHT22;12054;53.662;10.126;2022-08-03T09:38:20;29.80;80.70
23748;DHT22;12054;53.662;10.126;2022-08-03T09:40:51;29.90;80.50
23748;DHT22;12054;53.662;10.126;2022-08-03T09:43:17;30.00;80.40
23748;DHT22;12054;53.662;10.126;2022-08-03T09:45:43;30.00;79.90
23748;DHT22;12054;53.662;10.126;2022-08-03T09:48:29;30.00;79.70
23748;DHT22;12054;53.662;10.126;2022-08-03T09:51:00;30.10;79.70
23748;DHT22;12054;53.662;10.126;2022-08-03T09:53:26;30.20;79.40
23748;DHT22;12054;53.662;10.126;2022-08-03T09:55:56;30.20;79.00
23748;DHT22;12054;53.662;10.126;2022-08-03T09:58:27;30.30;78.80
23748;DHT22;12054;53.662;10.126;2022-08-03T10:03:20;30.50;78.80
23748;DHT22;12054;53.662;10.126;2022-08-03T10:05:46;30.50;78.30
23748;DHT22;12054;53.662;10.126;2022-08-03T10:08:16;30.60;78.10
23748;DHT22;12054;53.662;10.126;2022-08-03T10:10:43;30.70;77.70
23748;DHT22;12054;53.662;10.126;2022-08-03T10:13:18;30.70;77.30
23748;DHT22;12054;53.662;10.126;2022-08-03T10:15:45;30.80;76.60
23748;DHT22;12054;53.662;10.126;2022-08-03T10:18:11;30.80;76.30
23748;DHT22;12054;53.662;10.126;2022-08-03T10:20:42;30.80;76.20
23748;DHT22;12054;53.662;10.126;2022-08-03T10:23:09;30.90;76.00
23748;DHT22;12054;53.662;10.126;2022-08-03T10:25:36;30.90;75.50
23748;DHT22;12054;53.662;10.126;2022-08-03T10:28:03;31.00;75.70
23748;DHT22;12054;53.662;10.126;2022-08-03T10:30:31;31.10;75.30
23748;DHT22;12054;53.662;10.126;2022-08-03T10:33:16;31.20;75.60
23748;DHT22;12054;53.662;10.126;2022-08-03T10:35:43;31.30;75.10
23748;DHT22;12054;53.662;10.126;2022-08-03T10:38:17;31.40;75.50
23748;DHT22;12054;53.662;10.126;2022-08-03T10:40:43;31.40;74.50
23748;DHT22;12054;53.662;10.126;2022-08-03T10:43:15;31.50;74.70
23748;DHT22;12054;53.662;10.126;2022-08-03T10:45:43;31.60;74.40
23748;DHT22;12054;53.662;10.126;2022-08-03T10:48:10;31.70;73.80
23748;DHT22;12054;53.662;10.126;2022-08-03T10:50:36;31.70;72.80
23748;DHT22;12054;53.662;10.126;2022-08-03T10:53:04;31.70;72.70
23748;DHT22;12054;53.662;10.126;2022-08-03T10:55:44;31.70;72.80
23748;DHT22;12054;53.662;10.126;2022-08-03T10:58:49;31.80;72.40
23748;DHT22;12054;53.662;10.126;2022-08-03T11:01:15;31.80;72.30
23748;DHT22;12054;53.662;10.126;2022-08-03T11:04:15;31.80;72.20
23748;DHT22;12054;53.662;10.126;2022-08-03T11:06:41;31.80;71.70
23748;DHT22;12054;53.662;10.126;2022-08-03T11:11:36;31.80;71.70
23748;DHT22;12054;53.662;10.126;2022-08-03T11:14:05;31.80;71.70
23748;DHT22;12054;53.662;10.126;2022-08-03T11:17:07;31.80;71.30
23748;DHT22;12054;53.662;10.126;2022-08-03T11:19:50;31.80;71.30
23748;DHT22;12054;53.662;10.126;2022-08-03T11:22:17;31.90;71.20
23748;DHT22;12054;53.662;10.126;2022-08-03T11:29:59;32.00;71.60
23748;DHT22;12054;53.662;10.126;2022-08-03T11:35:22;32.20;70.90
23748;DHT22;12054;53.662;10.126;2022-08-03T11:40:45;32.30;69.30
23748;DHT22;12054;53.662;10.126;2022-08-03T11:45:57;32.30;68.30
23748;DHT22;12054;53.662;10.126;2022-08-03T11:48:31;32.30;68.30
23748;DHT22;12054;53.662;10.126;2022-08-03T11:50:58;32.30;68.20
23748;DHT22;12054;53.662;10.126;2022-08-03T11:53:24;32.30;68.50
23748;DHT22;12054;53.662;10.126;2022-08-03T11:55:49;32.30;67.90
23748;DHT22;12054;53.662;10.126;2022-08-03T11:58:17;32.30;67.70
23748;DHT22;12054;53.662;10.126;2022-08-03T12:00:42;32.30;67.50
23748;DHT22;12054;53.662;10.126;2022-08-03T12:03:10;32.40;67.80
23748;DHT22;12054;53.662;10.126;2022-08-03T12:05:51;32.50;68.00
23748;DHT22;12054;53.662;10.126;2022-08-03T12:08:29;32.60;67.40
23748;DHT22;12054;53.662;10.126;2022-08-03T12:10:58;32.70;66.90
23748;DHT22;12054;53.662;10.126;2022-08-03T12:13:24;32.80;66.60
23748;DHT22;12054;53.662;10.126;2022-08-03T12:15:58;32.90;66.40
23748;DHT22;12054;53.662;10.126;2022-08-03T12:18:24;32.90;66.30
23748;DHT22;12054;53.662;10.126;2022-08-03T12:20:52;33.00;66.30
23748;DHT22;12054;53.662;10.126;2022-08-03T12:23:18;33.00;67.10
23748;DHT22;12054;53.662;10.126;2022-08-03T12:25:45;33.00;66.10
23748;DHT22;12054;53.662;10.126;2022-08-03T12:28:16;33.10;65.40
23748;DHT22;12054;53.662;10.126;2022-08-03T12:30:44;33.10;65.00
23748;DHT22;12054;53.662;10.126;2022-08-03T12:33:22;33.20;65.10
23748;DHT22;12054;53.662;10.126;2022-08-03T12:35:50;33.20;64.70
23748;DHT22;12054;53.662;10.126;2022-08-03T12:38:26;33.20;64.10
23748;DHT22;12054;53.662;10.126;2022-08-03T12:40:56;33.20;63.50
23748;DHT22;12054;53.662;10.126;2022-08-03T12:43:22;33.20;63.20
23748;DHT22;12054;53.662;10.126;2022-08-03T12:45:48;33.30;63.30
23748;DHT22;12054;53.662;10.126;2022-08-03T12:48:13;33.40;63.10
23748;DHT22;12054;53.662;10.126;2022-08-03T12:50:39;33.40;63.00
23748;DHT22;12054;53.662;10.126;2022-08-03T12:53:07;33.40;62.90
23748;DHT22;12054;53.662;10.126;2022-08-03T12:55:33;33.50;63.80
23748;DHT22;12054;53.662;10.126;2022-08-03T12:58:03;33.60;62.80
23748;DHT22;12054;53.662;10.126;2022-08-03T13:00:30;33.60;62.60
23748;DHT22;12054;53.662;10.126;2022-08-03T13:03:04;33.70;62.30
23748;DHT22;12054;53.662;10.126;2022-08-03T13:05:30;33.70;62.20
23748;DHT22;12054;53.662;10.126;2022-08-03T13:07:56;33.80;61.90
23748;DHT22;12054;53.662;10.126;2022-08-03T13:10:32;33.70;61.80
23748;DHT22;12054;53.662;10.126;2022-08-03T13:12:59;33.70;61.70
23748;DHT22;12054;53.662;10.126;2022-08-03T13:15:27;33.70;61.70
23748;DHT22;12054;53.662;10.126;2022-08-03T13:17:55;33.70;62.10
23748;DHT22;12054;53.662;10.126;2022-08-03T13:20:21;33.80;62.30
23748;DHT22;12054;53.662;10.126;2022-08-03T13:22:47;33.80;62.30
23748;DHT22;12054;53.662;10.126;2022-08-03T13:25:13;33.80;62.30
23748;DHT22;12054;53.662;10.126;2022-08-03T13:27:39;33.90;62.10
23748;DHT22;12054;53.662;10.126;2022-08-03T13:30:06;34.00;61.40
23748;DHT22;12054;53.662;10.126;2022-08-03T13:32:32;34.00;60.90
23748;DHT22;12054;53.662;10.126;2022-08-03T13:34:58;34.00;60.40
23748;DHT22;12054;53.662;10.126;2022-08-03T13:37:25;34.00;60.50
23748;DHT22;12054;53.662;10.126;2022-08-03T13:39:50;34.00;60.50
23748;DHT22;12054;53.662;10.126;2022-08-03T13:42:16;34.00;60.60
23748;DHT22;12054;53.662;10.126;2022-08-03T13:44:41;34.00;60.60
23748;DHT22;12054;53.662;10.126;2022-08-03T13:47:07;33.90;60.50
23748;DHT22;12054;53.662;10.126;2022-08-03T13:49:32;34.00;60.70
23748;DHT22;12054;53.662;10.126;2022-08-03T13:51:58;34.00;60.50
23748;DHT22;12054;53.662;10.126;2022-08-03T13:54:25;34.10;60.10
23748;DHT22;12054;53.662;10.126;2022-08-03T13:56:50;34.10;59.60
23748;DHT22;12054;53.662;10.126;2022-08-03T13:59:23;34.20;59.50
23748;DHT22;12054;53.662;10.126;2022-08-03T14:01:49;34.20;59.40
23748;DHT22;12054;53.662;10.126;2022-08-03T14:04:15;34.20;59.30
23748;DHT22;12054;53.662;10.126;2022-08-03T14:06:41;34.20;59.10
23748;DHT22;12054;53.662;10.126;2022-08-03T14:09:09;34.20;59.20
23748;DHT22;12054;53.662;10.126;2022-08-03T14:11:35;34.20;59.30
23748;DHT22;12054;53.662;10.126;2022-08-03T14:14:00;34.20;59.20
23748;DHT22;12054;53.662;10.126;2022-08-03T14:16:26;34.20;59.30
23748;DHT22;12054;53.662;10.126;2022-08-03T14:18:51;34.20;59.50
23748;DHT22;12054;53.662;10.126;2022-08-03T14:21:18;34.20;59.50
23748;DHT22;12054;53.662;10.126;2022-08-03T14:23:44;34.20;59.40
23748;DHT22;12054;53.662;10.126;2022-08-03T14:26:09;34.10;59.40
23748;DHT22;12054;53.662;10.126;2022-08-03T14:28:36;34.10;59.40
23748;DHT22;12054;53.662;10.126;2022-08-03T14:31:02;34.10;59.20
23748;DHT22;12054;53.662;10.126;2022-08-03T14:33:28;34.10;59.20
23748;DHT22;12054;53.662;10.126;2022-08-03T14:35:54;34.10;59.40
23748;DHT22;12054;53.662;10.126;2022-08-03T14:38:20;34.10;59.60
23748;DHT22;12054;53.662;10.126;2022-08-03T14:40:46;34.10;59.70
23748;DHT22;12054;53.662;10.126;2022-08-03T14:43:11;34.00;59.60
23748;DHT22;12054;53.662;10.126;2022-08-03T14:45:38;34.00;59.50
23748;DHT22;12054;53.662;10.126;2022-08-03T14:48:04;34.10;59.40
23748;DHT22;12054;53.662;10.126;2022-08-03T14:50:29;33.90;59.30
23748;DHT22;12054;53.662;10.126;2022-08-03T14:52:55;33.90;59.30
23748;DHT22;12054;53.662;10.126;2022-08-03T14:55:21;33.80;59.10
23748;DHT22;12054;53.662;10.126;2022-08-03T14:57:47;33.80;59.40
23748;DHT22;12054;53.662;10.126;2022-08-03T15:00:12;33.80;59.40
23748;DHT22;12054;53.662;10.126;2022-08-03T15:02:38;33.80;59.60
23748;DHT22;12054;53.662;10.126;2022-08-03T15:05:04;33.70;59.50
23748;DHT22;12054;53.662;10.126;2022-08-03T15:07:30;33.70;59.70
23748;DHT22;12054;53.662;10.126;2022-08-03T15:09:55;33.70;59.80
23748;DHT22;12054;53.662;10.126;2022-08-03T15:12:21;33.70;59.80
23748;DHT22;12054;53.662;10.126;2022-08-03T15:14:46;33.70;59.50
23748;DHT22;12054;53.662;10.126;2022-08-03T15:17:12;33.60;59.40
23748;DHT22;12054;53.662;10.126;2022-08-03T15:19:37;33.60;59.60
23748;DHT22;12054;53.662;10.126;2022-08-03T15:22:03;33.60;59.60
23748;DHT22;12054;53.662;10.126;2022-08-03T15:24:29;33.60;59.60
23748;DHT22;12054;53.662;10.126;2022-08-03T15:26:54;33.50;59.60
23748;DHT22;12054;53.662;10.126;2022-08-03T15:29:20;33.50;59.70
23748;DHT22;12054;53.662;10.126;2022-08-03T15:31:45;33.40;59.90
23748;DHT22;12054;53.662;10.126;2022-08-03T15:34:11;33.40;59.50
23748;DHT22;12054;53.662;10.126;2022-08-03T15:36:36;33.40;59.60
23748;DHT22;12054;53.662;10.126;2022-08-03T15:39:03;33.30;59.70
23748;DHT22;12054;53.662;10.126;2022-08-03T15:41:29;33.30;59.80